Time;durP1;ratioP1;P1;durP2;ratioP2;P2;SDS_P1;SDS_P2;PMS_P1;PMS_P2;Temp;Humidity;BMP_temperature;BMP_pressure;BME280_temperature;BME280_humidity;BME280_pressure;Samples;Min_cycle;Max_cycle;Signal;HPM_P1;HPM_P2
2021/11/26 00:01:02;;;;;;;29.05;13.02;;;;;;;3.21;78.61;97060.72;4990086;28;20547;-56
2021/11/26 00:03:27;;;;;;;29.02;13.20;;;;;;;3.22;78.21;97054.69;4991711;28;20037;-56
2021/11/26 00:05:52;;;;;;;32.00;14.20;;;;;;;3.30;78.45;97054.47;4990797;28;20034;-56
2021/11/26 00:08:18;;;;;;;28.63;12.60;;;;;;;3.28;78.83;97039.88;4991789;28;20049;-56
2021/11/26 00:10:43;;;;;;;29.92;14.02;;;;;;;3.19;78.63;97037.56;4991807;28;20100;-56
2021/11/26 00:13:10;;;;;;;26.17;12.35;;;;;;;3.24;78.77;97040.84;4990940;28;20420;-56
2021/11/26 00:15:40;;;;;;;30.20;13.18;;;;;;;3.05;78.88;97039.66;4991109;28;20628;-56
2021/11/26 00:18:42;;;;;;;30.38;13.52;;;;;;;3.07;79.89;97035.31;4991096;28;20026;-57
2021/11/26 00:21:00;;;;;;;33.90;15.20;;;;;;;3.19;82.08;97031.56;4991244;28;20038;-55
2021/11/26 00:23:25;;;;;;;30.17;14.07;;;;;;;3.32;79.77;97029.50;4992574;28;20030;-54
2021/11/26 00:25:50;;;;;;;32.53;14.82;;;;;;;3.24;78.13;97024.56;4990263;28;20042;-55
2021/11/26 00:28:16;;;;;;;29.52;13.82;;;;;;;3.16;78.83;97019.63;4992204;28;20018;-54
2021/11/26 00:30:41;;;;;;;29.45;13.15;;;;;;;3.21;79.75;97009.16;4991817;28;20066;-55
2021/11/26 00:33:07;;;;;;;25.75;12.85;;;;;;;3.41;78.41;97008.63;4989636;28;20068;-56
2021/11/26 00:35:32;;;;;;;31.77;13.73;;;;;;;3.26;80.43;97003.00;4992555;28;20038;-57
2021/11/26 00:37:58;;;;;;;29.60;13.85;;;;;;;3.20;79.48;96997.19;4993419;28;20041;-57
2021/11/26 00:40:23;;;;;;;28.83;13.88;;;;;;;3.08;79.07;96994.03;4991031;28;20057;-55
2021/11/26 00:42:49;;;;;;;31.65;13.95;;;;;;;3.28;78.01;96990.06;4993020;28;20025;-55
2021/11/26 00:45:16;;;;;;;33.10;14.45;;;;;;;3.16;78.41;96986.13;4989804;28;20029;-55
2021/11/26 00:47:42;;;;;;;30.00;13.85;;;;;;;3.25;78.74;96977.28;4992425;28;20026;-55
2021/11/26 00:50:10;;;;;;;30.45;14.23;;;;;;;3.13;79.57;96983.63;4990560;28;20137;-55
2021/11/26 00:52:35;;;;;;;30.95;13.75;;;;;;;3.51;79.36;96981.69;4991498;28;20018;-56
2021/11/26 00:55:01;;;;;;;30.23;14.07;;;;;;;3.45;78.14;96961.22;4991649;28;20021;-55
2021/11/26 00:57:26;;;;;;;30.88;14.02;;;;;;;3.25;79.32;96959.22;4999047;28;20041;-56
2021/11/26 00:59:52;;;;;;;30.13;13.80;;;;;;;3.38;79.34;96959.72;4991432;28;20089;-55
2021/11/26 01:02:18;;;;;;;33.65;14.73;;;;;;;3.47;78.14;96954.28;4990698;28;20096;-56
2021/11/26 01:04:44;;;;;;;34.38;15.15;;;;;;;3.43;80.58;96953.53;4989844;28;20033;-55
2021/11/26 01:07:09;;;;;;;32.63;13.90;;;;;;;3.24;80.18;96953.25;4990425;28;20041;-56
2021/11/26 01:09:34;;;;;;;31.73;14.45;;;;;;;3.10;79.85;96950.19;4989924;28;20076;-54
2021/11/26 01:12:00;;;;;;;32.83;14.32;;;;;;;2.97;80.13;96948.88;4990457;28;20034;-55
2021/11/26 01:14:26;;;;;;;32.83;14.77;;;;;;;3.33;78.45;96953.84;4990733;28;20042;-56
2021/11/26 01:16:53;;;;;;;31.50;14.73;;;;;;;3.08;79.08;96942.50;4988601;28;20038;-56
2021/11/26 01:19:19;;;;;;;33.50;14.80;;;;;;;3.08;78.99;96941.69;4990723;28;20117;-57
2021/11/26 01:21:46;;;;;;;31.20;14.18;;;;;;;3.15;79.26;96942.34;4998995;28;20085;-55
2021/11/26 01:24:11;;;;;;;35.13;15.13;;;;;;;3.21;78.78;96942.19;4990403;28;20052;-55
2021/11/26 01:26:37;;;;;;;30.80;12.13;;;;;;;3.31;80.71;96938.47;4990536;28;20034;-56
2021/11/26 01:29:03;;;;;;;34.30;14.63;;;;;;;3.25;79.68;96939.47;4989508;28;20566;-56
2021/11/26 01:31:28;;;;;;;32.50;14.98;;;;;;;3.08;78.71;96936.53;4989959;28;20034;-55
2021/11/26 01:33:54;;;;;;;36.92;15.15;;;;;;;2.99;79.40;96936.78;4989272;28;20034;-56
2021/11/26 01:36:21;;;;;;;37.28;15.13;;;;;;;3.05;80.41;96931.44;4989373;28;20390;-57
2021/11/26 01:38:46;;;;;;;35.00;14.60;;;;;;;3.11;79.67;96935.56;4988821;28;20096;-55
2021/11/26 01:41:13;;;;;;;33.17;14.18;;;;;;;3.32;80.44;96929.81;4988260;28;20697;-54
2021/11/26 01:43:38;;;;;;;31.60;14.05;;;;;;;3.26;80.85;96933.41;4989404;28;20456;-56
2021/11/26 01:46:10;;;;;;;31.40;14.15;;;;;;;2.78;80.85;96933.06;4989134;28;20041;-55
2021/11/26 01:48:37;;;;;;;34.42;14.98;;;;;;;2.77;81.97;96921.91;4989320;28;20019;-56
2021/11/26 01:51:04;;;;;;;30.40;13.60;;;;;;;3.11;80.73;96918.41;4989064;28;20113;-54
2021/11/26 01:53:30;;;;;;;32.95;14.95;;;;;;;2.97;80.00;96917.94;4987221;28;20018;-55
2021/11/26 01:55:56;;;;;;;34.55;14.25;;;;;;;3.24;79.48;96911.16;4987364;28;20026;-54
2021/11/26 01:58:22;;;;;;;34.67;14.23;;;;;;;3.14;78.75;96913.16;4990091;28;20041;-56
2021/11/26 02:00:48;;;;;;;31.80;14.55;;;;;;;2.86;80.17;96913.09;4986469;28;20050;-57
2021/11/26 02:03:15;;;;;;;31.55;14.13;;;;;;;3.03;80.99;96913.47;5005103;28;20030;-56
2021/11/26 02:05:40;;;;;;;36.20;14.85;;;;;;;3.19;79.79;96913.03;4990506;28;20042;-56
2021/11/26 02:08:09;;;;;;;32.72;15.35;;;;;;;3.11;79.56;96907.25;4986419;28;20381;-56
2021/11/26 02:10:35;;;;;;;31.42;13.98;;;;;;;3.17;79.46;96910.50;4988202;28;20096;-55
2021/11/26 02:13:00;;;;;;;32.83;15.20;;;;;;;3.08;79.29;96903.88;4985974;28;20041;-56
2021/11/26 02:15:28;;;;;;;33.70;14.38;;;;;;;3.15;80.76;96901.97;4987316;28;20038;-55
2021/11/26 02:17:57;;;;;;;33.85;14.15;;;;;;;3.09;80.10;96894.44;4989246;28;20058;-56
2021/11/26 02:20:28;;;;;;;30.73;14.00;;;;;;;3.08;79.38;96895.31;4986715;28;20045;-55
2021/11/26 02:22:55;;;;;;;29.58;13.85;;;;;;;3.21;79.00;96898.38;4988397;28;20476;-57
2021/11/26 02:25:22;;;;;;;32.70;14.48;;;;;;;2.99;80.06;96901.56;4988183;28;20034;-56
2021/11/26 02:27:49;;;;;;;32.88;14.73;;;;;;;3.13;79.19;96888.28;4988462;28;20018;-55
2021/11/26 02:30:15;;;;;;;33.60;14.43;;;;;;;3.27;79.74;96893.88;4987041;28;20631;-54
2021/11/26 02:32:50;;;;;;;33.60;14.70;;;;;;;2.81;81.72;96891.78;4987798;28;20774;-54
2021/11/26 02:35:15;;;;;;;34.33;14.57;;;;;;;3.36;79.99;96889.34;4986577;28;20034;-55
2021/11/26 02:37:41;;;;;;;32.03;14.77;;;;;;;3.19;79.55;96887.25;4987309;28;20886;-56
2021/11/26 02:40:09;;;;;;;34.15;14.10;;;;;;;3.20;79.73;96866.59;4987141;28;20118;-55
2021/11/26 02:42:37;;;;;;;32.47;15.15;;;;;;;3.33;79.71;96872.25;4988285;28;20034;-54
2021/11/26 02:45:06;;;;;;;34.20;14.63;;;;;;;3.24;79.76;96865.63;4988929;28;20030;-55
2021/11/26 02:47:31;;;;;;;31.65;14.45;;;;;;;3.05;81.76;96872.19;4995987;28;20113;-56
2021/11/26 02:49:57;;;;;;;34.75;14.80;;;;;;;3.01;82.41;96862.88;4988813;28;20516;-56
2021/11/26 02:52:22;;;;;;;34.20;14.95;;;;;;;3.01;81.19;96868.03;4987735;28;20032;-55
2021/11/26 02:54:51;;;;;;;35.95;15.18;;;;;;;3.16;82.11;96862.44;4989020;28;20037;-56
2021/11/26 02:57:16;;;;;;;33.35;14.80;;;;;;;2.86;81.78;96865.00;4989265;28;20045;-56
2021/11/26 02:59:42;;;;;;;35.78;15.43;;;;;;;3.21;80.11;96860.56;4996567;28;20030;-54
2021/11/26 03:02:07;;;;;;;33.38;14.50;;;;;;;3.16;79.96;96852.13;4985798;28;20046;-55
2021/11/26 03:04:32;;;;;;;32.60;14.85;;;;;;;3.13;80.74;96843.66;4987201;28;20528;-54
2021/11/26 03:07:05;;;;;;;36.08;15.15;;;;;;;3.23;82.06;96845.88;4988020;28;20038;-54
2021/11/26 03:09:31;;;;;;;33.58;15.00;;;;;;;3.26;80.71;96837.25;4987195;28;20021;-55
2021/11/26 03:11:56;;;;;;;35.33;15.77;;;;;;;3.28;80.96;96838.88;4985329;28;20045;-55
2021/11/26 03:14:21;;;;;;;32.88;14.82;;;;;;;3.36;81.06;96850.69;4986892;28;20491;-55
2021/11/26 03:16:47;;;;;;;35.97;16.02;;;;;;;3.43;81.47;96839.28;4986766;28;20050;-56
2021/11/26 03:19:12;;;;;;;34.00;14.68;;;;;;;3.54;80.14;96836.38;4988238;28;20018;-55
2021/11/26 03:21:38;;;;;;;36.53;15.60;;;;;;;3.30;80.30;96830.25;4984501;28;20669;-54
2021/11/26 03:24:03;;;;;;;32.97;14.68;;;;;;;3.33;81.83;96827.56;4987240;28;20022;-55
2021/11/26 03:26:29;;;;;;;33.70;14.85;;;;;;;3.00;81.25;96820.00;4987072;28;20424;-57
2021/11/26 03:28:54;;;;;;;36.60;14.98;;;;;;;3.31;80.62;96819.03;4989005;28;20118;-55
2021/11/26 03:31:19;;;;;;;33.28;14.45;;;;;;;3.53;82.13;96814.91;4986953;28;20520;-55
2021/11/26 03:33:45;;;;;;;33.80;14.63;;;;;;;3.33;79.95;96812.09;4986247;28;20037;-55
2021/11/26 03:36:10;;;;;;;30.77;13.88;;;;;;;3.28;82.40;96805.34;4986611;28;20629;-57
2021/11/26 03:38:36;;;;;;;34.67;15.38;;;;;;;3.11;80.82;96807.63;4989170;28;20042;-55
2021/11/26 03:41:01;;;;;;;32.28;15.02;;;;;;;2.74;82.46;96803.56;4985637;28;20101;-55
2021/11/26 03:43:26;;;;;;;36.53;15.43;;;;;;;2.80;82.63;96803.38;4986346;28;20032;-56
2021/11/26 03:45:52;;;;;;;35.53;14.55;;;;;;;3.07;80.79;96798.31;4985855;28;20049;-55
2021/11/26 03:48:17;;;;;;;36.05;14.63;;;;;;;2.98;82.10;96788.25;4988079;28;20010;-56
2021/11/26 03:50:43;;;;;;;39.15;15.75;;;;;;;3.05;81.55;96782.03;4987005;28;20073;-56
2021/11/26 03:53:08;;;;;;;34.67;15.38;;;;;;;3.25;81.16;96784.88;4986681;28;20030;-56
2021/11/26 03:55:34;;;;;;;33.00;15.43;;;;;;;3.07;81.77;96785.44;4987060;28;20038;-56
2021/11/26 03:57:59;;;;;;;35.42;15.40;;;;;;;3.30;80.78;96783.88;4985851;28;20049;-56
2021/11/26 04:00:25;;;;;;;38.83;15.07;;;;;;;2.96;81.49;96784.88;4984974;28;20124;-55
2021/11/26 04:02:51;;;;;;;34.33;15.63;;;;;;;3.24;80.32;96778.00;4986026;28;20665;-55
2021/11/26 04:05:17;;;;;;;34.60;15.27;;;;;;;3.21;81.32;96778.09;4986717;28;20025;-57
2021/11/26 04:07:43;;;;;;;34.08;15.20;;;;;;;3.40;82.92;96772.34;4986688;28;20014;-56
2021/11/26 04:10:10;;;;;;;34.00;14.25;;;;;;;3.18;82.92;96772.19;4986263;28;20029;-55
2021/11/26 04:12:36;;;;;;;35.13;15.45;;;;;;;3.19;81.54;96769.56;4984540;28;20072;-57
2021/11/26 04:15:06;;;;;;;35.97;15.60;;;;;;;3.28;80.52;96774.44;4989759;28;20025;-56
2021/11/26 04:17:33;;;;;;;37.90;15.02;;;;;;;2.96;81.31;96772.88;4990062;28;20058;-56
2021/11/26 04:19:58;;;;;;;35.10;15.32;;;;;;;2.94;82.04;96768.63;4991224;28;20026;-55
2021/11/26 04:22:23;;;;;;;36.50;14.73;;;;;;;2.96;83.53;96756.56;4990787;28;20038;-57
2021/11/26 04:24:49;;;;;;;32.42;14.52;;;;;;;3.07;84.41;96747.63;4991350;28;20635;-55
2021/11/26 04:27:14;;;;;;;38.10;15.45;;;;;;;2.75;86.61;96747.75;4990394;28;20038;-55
2021/11/26 04:29:40;;;;;;;35.35;15.05;;;;;;;3.30;82.82;96746.03;4990828;28;20050;-55
2021/11/26 04:32:06;;;;;;;36.22;16.45;;;;;;;2.89;81.71;96745.63;4987705;28;20125;-55
2021/11/26 04:34:32;;;;;;;36.60;16.02;;;;;;;3.22;80.98;96748.88;4996281;28;20033;-56
2021/11/26 04:36:57;;;;;;;37.80;15.63;;;;;;;3.51;81.26;96741.94;4988436;28;20056;-55
2021/11/26 04:39:23;;;;;;;34.55;14.40;;;;;;;3.03;83.88;96747.75;4990760;28;20365;-57
2021/11/26 04:41:48;;;;;;;31.80;14.05;;;;;;;3.08;82.60;96741.56;4998371;28;20034;-55
2021/11/26 04:44:14;;;;;;;31.08;14.05;;;;;;;3.28;81.27;96735.78;4989164;28;20026;-56
2021/11/26 04:46:39;;;;;;;30.33;12.07;;;;;;;3.15;83.33;96729.34;4989700;28;20132;-56
2021/11/26 04:49:05;;;;;;;34.15;14.40;;;;;;;3.19;81.24;96724.94;4990411;28;20038;-55
2021/11/26 04:51:34;;;;;;;32.60;14.43;;;;;;;3.36;80.94;96714.91;4989505;28;20113;-55
2021/11/26 04:54:00;;;;;;;31.85;14.48;;;;;;;3.45;83.02;96706.88;4989108;28;20112;-55
2021/11/26 04:56:26;;;;;;;34.35;14.77;;;;;;;2.99;82.30;96712.69;4988829;28;20121;-55
2021/11/26 04:58:51;;;;;;;32.00;12.52;;;;;;;3.19;84.67;96707.72;4990573;28;20030;-56
2021/11/26 05:01:17;;;;;;;37.17;15.82;;;;;;;3.20;80.82;96709.44;4991483;28;20245;-55
2021/11/26 05:03:42;;;;;;;37.88;15.55;;;;;;;3.33;80.31;96693.53;4988940;28;20033;-55
2021/11/26 05:06:08;;;;;;;36.53;16.15;;;;;;;3.10;81.24;96700.31;4989464;28;20045;-55
2021/11/26 05:08:33;;;;;;;30.92;13.07;;;;;;;3.17;83.84;96699.22;4988972;28;20211;-55
2021/11/26 05:10:58;;;;;;;36.15;15.38;;;;;;;3.02;83.42;96695.41;4988621;28;20045;-55
2021/11/26 05:13:28;;;;;;;35.10;14.80;;;;;;;2.95;82.47;96698.22;4989358;28;20680;-55
2021/11/26 05:15:54;;;;;;;36.42;15.00;;;;;;;3.04;82.24;96691.03;4990053;28;20038;-55
2021/11/26 05:18:23;;;;;;;38.05;14.98;;;;;;;3.32;81.48;96689.31;4988669;28;20034;-55
2021/11/26 05:20:52;;;;;;;34.03;15.18;;;;;;;3.38;80.59;96689.09;4990561;28;20226;-55
2021/11/26 05:23:18;;;;;;;39.17;15.57;;;;;;;3.32;80.71;96687.56;4990282;28;20038;-55
2021/11/26 05:25:44;;;;;;;34.55;15.02;;;;;;;3.32;81.73;96692.72;4988718;28;20451;-55
2021/11/26 05:28:09;;;;;;;34.53;15.52;;;;;;;3.42;83.05;96685.53;4989691;28;20025;-55
2021/11/26 05:30:35;;;;;;;35.28;14.90;;;;;;;3.05;83.28;96694.44;4989427;28;20046;-55
2021/11/26 05:33:01;;;;;;;34.83;14.93;;;;;;;3.01;83.34;96693.69;4989556;28;20030;-58
2021/11/26 05:35:27;;;;;;;38.65;15.63;;;;;;;3.16;83.07;96679.50;4989370;28;20053;-56
2021/11/26 05:37:53;;;;;;;34.47;15.40;;;;;;;3.14;82.79;96676.13;4987818;28;20038;-55
2021/11/26 05:40:19;;;;;;;32.50;15.05;;;;;;;3.05;83.04;96684.13;4988361;28;20079;-56
2021/11/26 05:42:46;;;;;;;40.53;15.82;;;;;;;2.91;83.93;96683.75;4988945;28;20479;-55
2021/11/26 05:45:13;;;;;;;41.83;16.42;;;;;;;3.15;83.98;96675.22;4987451;28;20122;-56
2021/11/26 05:47:39;;;;;;;37.10;15.40;;;;;;;3.27;81.87;96685.16;4990633;28;20045;-54
2021/11/26 05:50:07;;;;;;;39.45;16.30;;;;;;;3.25;81.71;96681.78;4989112;28;20268;-56
2021/11/26 05:52:34;;;;;;;33.28;14.93;;;;;;;3.27;81.34;96673.97;4990279;28;20142;-56
2021/11/26 05:55:00;;;;;;;33.65;14.75;;;;;;;3.41;81.47;96679.53;4991664;28;20034;-56
2021/11/26 05:57:26;;;;;;;39.63;16.50;;;;;;;3.18;82.38;96680.31;4987294;28;20108;-55
2021/11/26 05:59:51;;;;;;;40.47;15.52;;;;;;;3.13;82.29;96684.75;4986710;28;20876;-54
2021/11/26 06:02:16;;;;;;;37.10;16.30;;;;;;;3.12;82.38;96672.75;4988993;28;20034;-56
2021/11/26 06:04:42;;;;;;;41.28;17.13;;;;;;;3.18;82.47;96682.88;4991436;28;20453;-56
2021/11/26 06:07:08;;;;;;;45.53;18.58;;;;;;;3.07;83.07;96677.22;4990881;28;20038;-56
2021/11/26 06:09:34;;;;;;;43.13;17.75;;;;;;;3.05;83.13;96663.53;4989507;28;20029;-57
2021/11/26 06:11:59;;;;;;;40.50;17.70;;;;;;;3.37;81.79;96666.81;4998371;28;20038;-56
2021/11/26 06:14:24;;;;;;;44.50;18.20;;;;;;;3.18;82.42;96663.97;4998356;28;20044;-55
2021/11/26 06:16:50;;;;;;;40.42;17.50;;;;;;;3.08;83.12;96658.28;4992499;28;20700;-56
2021/11/26 06:19:15;;;;;;;42.67;17.88;;;;;;;3.12;82.76;96654.72;4992815;28;20066;-55
2021/11/26 06:21:41;;;;;;;39.30;17.38;;;;;;;3.09;83.91;96657.41;4999215;28;20046;-56
2021/11/26 06:24:06;;;;;;;41.78;17.75;;;;;;;3.06;83.23;96654.94;4998060;28;20034;-55
2021/11/26 06:26:32;;;;;;;40.70;16.10;;;;;;;3.22;84.43;96658.69;4990241;28;20084;-56
2021/11/26 06:28:57;;;;;;;41.90;17.27;;;;;;;3.13;85.25;96656.41;4990783;28;20026;-56
2021/11/26 06:31:23;;;;;;;45.00;17.90;;;;;;;3.34;84.08;96656.59;4992444;28;20499;-55
2021/11/26 06:33:48;;;;;;;40.42;17.30;;;;;;;3.35;83.06;96660.88;4990574;28;20033;-57
2021/11/26 06:36:13;;;;;;;41.38;16.05;;;;;;;3.31;83.74;96657.53;4989951;28;20041;-55
2021/11/26 06:38:39;;;;;;;36.22;14.90;;;;;;;3.41;83.88;96655.50;4987304;28;20129;-54
2021/11/26 06:41:05;;;;;;;32.90;14.73;;;;;;;3.63;84.50;96650.44;4990535;28;20045;-56
2021/11/26 06:43:30;;;;;;;48.90;18.52;;;;;;;3.48;84.32;96646.66;4988976;28;20138;-56
2021/11/26 06:45:56;;;;;;;44.85;17.55;;;;;;;3.61;83.67;96642.75;4990238;28;20107;-54
2021/11/26 06:48:25;;;;;;;43.20;17.67;;;;;;;3.53;82.61;96639.63;4991338;28;20022;-55
2021/11/26 06:50:50;;;;;;;45.03;17.70;;;;;;;3.26;83.75;96641.38;4990800;28;20045;-56
2021/11/26 06:53:16;;;;;;;41.83;18.00;;;;;;;3.69;83.74;96633.91;4990593;28;20022;-56
2021/11/26 06:55:41;;;;;;;41.97;16.63;;;;;;;3.38;83.62;96635.84;4989456;28;20044;-54
2021/11/26 06:58:06;;;;;;;40.10;16.88;;;;;;;3.60;84.03;96635.94;4990795;28;20029;-57
2021/11/26 07:00:32;;;;;;;41.60;17.02;;;;;;;3.56;82.72;96638.66;4988659;28;20034;-56
2021/11/26 07:02:57;;;;;;;43.05;17.20;;;;;;;3.36;81.80;96629.84;4990202;28;20030;-55
2021/11/26 07:05:23;;;;;;;43.65;18.35;;;;;;;3.35;83.38;96632.50;4990354;28;20599;-56
2021/11/26 07:07:48;;;;;;;37.78;16.67;;;;;;;3.16;83.90;96630.56;4987877;28;20130;-56
2021/11/26 07:10:15;;;;;;;41.35;17.63;;;;;;;3.23;82.59;96623.44;4989142;28;20084;-57
2021/11/26 07:12:41;;;;;;;42.45;18.35;;;;;;;3.14;83.45;96626.34;4990877;28;20113;-56
2021/11/26 07:15:09;;;;;;;42.70;18.10;;;;;;;3.09;83.26;96629.91;4988539;28;20026;-57
2021/11/26 07:17:35;;;;;;;37.38;16.83;;;;;;;3.24;81.91;96632.88;4991220;28;20030;-55
2021/11/26 07:20:02;;;;;;;46.30;17.88;;;;;;;3.29;82.57;96625.84;4990190;28;20403;-56
2021/11/26 07:22:27;;;;;;;44.90;18.60;;;;;;;3.22;84.19;96621.78;4988152;28;20166;-55
2021/11/26 07:24:52;;;;;;;43.67;17.80;;;;;;;3.06;83.99;96619.69;4989625;28;20077;-55
2021/11/26 07:27:18;;;;;;;45.55;18.23;;;;;;;3.11;83.97;96614.41;4988404;28;20456;-55
2021/11/26 07:29:45;;;;;;;44.05;17.58;;;;;;;3.23;82.99;96621.69;4990833;28;20135;-56
2021/11/26 07:32:11;;;;;;;49.85;18.50;;;;;;;2.89;84.55;96615.09;4989124;28;20033;-54
2021/11/26 07:34:39;;;;;;;47.17;18.38;;;;;;;3.38;83.79;96606.63;4990923;28;20452;-55
2021/11/26 07:37:06;;;;;;;41.10;16.25;;;;;;;3.46;86.51;96604.63;4995291;28;20038;-56
2021/11/26 07:39:34;;;;;;;48.97;17.95;;;;;;;3.11;83.92;96603.22;4998353;28;20057;-55
2021/11/26 07:42:03;;;;;;;46.67;18.58;;;;;;;3.14;84.30;96600.56;4989016;28;20065;-55
2021/11/26 07:44:30;;;;;;;44.20;17.75;;;;;;;3.24;83.62;96596.78;4990582;28;20030;-56
2021/11/26 07:46:56;;;;;;;47.08;18.02;;;;;;;3.22;84.58;96589.13;4989745;28;20074;-55
2021/11/26 07:49:24;;;;;;;42.83;17.77;;;;;;;3.20;84.21;96583.19;4990633;28;20068;-56
2021/11/26 07:51:49;;;;;;;47.20;18.05;;;;;;;3.37;83.65;96579.19;4993187;28;20491;-55
2021/11/26 07:54:15;;;;;;;47.28;18.60;;;;;;;3.48;82.67;96583.03;4995517;28;20111;-56
2021/11/26 07:56:41;;;;;;;44.65;17.88;;;;;;;3.36;83.81;96578.31;4993189;28;20564;-56
2021/11/26 07:59:07;;;;;;;47.58;18.48;;;;;;;3.40;82.89;96571.31;4993601;28;20455;-55
2021/11/26 08:01:32;;;;;;;43.58;17.23;;;;;;;3.28;84.62;96576.00;4993299;28;20073;-55
2021/11/26 08:03:58;;;;;;;49.95;17.60;;;;;;;3.88;84.76;96578.19;4992357;28;20056;-57
2021/11/26 08:06:23;;;;;;;48.25;18.30;;;;;;;3.23;84.91;96585.63;4994082;28;20060;-57
2021/11/26 08:08:48;;;;;;;45.85;18.70;;;;;;;2.92;84.72;96579.84;5002181;28;20030;-55
2021/11/26 08:11:14;;;;;;;43.40;18.35;;;;;;;3.28;84.33;96572.59;4992969;28;20125;-56
2021/11/26 08:13:40;;;;;;;44.22;17.60;;;;;;;3.08;85.01;96581.84;4994044;28;20026;-55
2021/11/26 08:16:07;;;;;;;46.75;18.40;;;;;;;3.23;83.72;96574.50;4997774;28;20127;-57
2021/11/26 08:18:33;;;;;;;44.58;18.33;;;;;;;3.34;84.13;96561.22;4990101;28;20026;-56
2021/11/26 08:20:59;;;;;;;45.42;17.92;;;;;;;3.35;83.31;96562.94;4993961;28;20707;-56
2021/11/26 08:23:27;;;;;;;44.83;18.50;;;;;;;3.37;84.13;96559.41;4995952;28;20029;-55
2021/11/26 08:25:53;;;;;;;49.17;19.35;;;;;;;3.53;83.01;96549.38;4992479;28;20542;-55
2021/11/26 08:28:18;;;;;;;49.00;19.15;;;;;;;3.33;83.84;96544.06;4993453;28;20017;-56
2021/11/26 08:30:43;;;;;;;47.97;18.52;;;;;;;3.42;86.75;96542.03;4992695;28;20715;-54
2021/11/26 08:33:10;;;;;;;57.13;21.67;;;;;;;3.45;86.10;96543.66;4993129;28;20056;-55
2021/11/26 08:35:35;;;;;;;57.20;19.67;;;;;;;3.52;86.08;96542.53;4992579;28;20545;-55
2021/11/26 08:38:01;;;;;;;53.08;20.15;;;;;;;3.54;84.27;96543.31;4994933;28;20601;-56
2021/11/26 08:40:26;;;;;;;49.38;18.40;;;;;;;3.69;86.78;96541.91;4993758;28;20068;-56
2021/11/26 08:42:52;;;;;;;50.55;18.92;;;;;;;3.38;84.45;96540.47;4992126;28;20109;-55
2021/11/26 08:45:19;;;;;;;50.67;20.02;;;;;;;3.21;86.48;96546.19;4993202;28;20030;-55
2021/11/26 08:47:46;;;;;;;56.78;21.60;;;;;;;3.57;87.42;96543.22;4993206;28;20030;-57
2021/11/26 08:50:14;;;;;;;60.72;21.88;;;;;;;3.63;85.18;96530.09;4991886;28;20033;-55
2021/11/26 08:52:41;;;;;;;51.35;19.10;;;;;;;3.62;85.78;96522.41;4990589;28;20653;-53
2021/11/26 08:55:11;;;;;;;51.83;20.38;;;;;;;3.54;87.17;96525.28;4991617;28;20053;-56
2021/11/26 08:57:36;;;;;;;49.45;19.60;;;;;;;3.64;86.44;96524.03;4992033;28;20726;-54
2021/11/26 09:00:04;;;;;;;51.33;20.60;;;;;;;3.64;86.51;96523.22;4992298;28;20638;-54
2021/11/26 09:02:30;;;;;;;50.45;20.45;;;;;;;3.46;87.29;96525.56;4991312;28;20034;-55
2021/11/26 09:04:55;;;;;;;54.13;21.45;;;;;;;3.33;88.47;96528.63;4991787;28;20384;-55
2021/11/26 09:07:21;;;;;;;55.13;19.88;;;;;;;3.41;87.53;96534.34;5000517;28;20053;-54
2021/11/26 09:09:46;;;;;;;50.45;19.92;;;;;;;3.83;87.23;96523.34;4993006;28;20523;-54
2021/11/26 09:12:11;;;;;;;58.70;21.20;;;;;;;3.46;89.37;96522.16;4991355;28;20077;-54
2021/11/26 09:14:38;;;;;;;51.50;20.02;;;;;;;3.65;87.74;96520.56;4993483;28;20246;-54
2021/11/26 09:17:04;;;;;;;52.08;20.83;;;;;;;3.61;88.10;96508.69;4991777;28;20062;-53
2021/11/26 09:19:29;;;;;;;54.08;21.60;;;;;;;3.63;89.16;96514.63;4992269;28;20142;-53
2021/11/26 09:21:54;;;;;;;51.42;21.23;;;;;;;3.40;88.91;96514.63;4993816;28;20445;-54
2021/11/26 09:24:20;;;;;;;57.45;21.48;;;;;;;3.69;88.53;96520.44;4994634;28;20456;-55
2021/11/26 09:26:45;;;;;;;58.20;21.65;;;;;;;3.86;87.27;96511.19;4999732;28;20050;-55
2021/11/26 09:29:11;;;;;;;58.67;22.73;;;;;;;3.59;88.93;96515.63;4991613;28;20018;-54
2021/11/26 09:31:36;;;;;;;56.78;21.35;;;;;;;3.66;88.06;96511.94;4990572;28;20276;-53
2021/11/26 09:34:04;;;;;;;52.22;18.80;;;;;;;4.05;89.17;96513.06;4989830;28;20037;-56
2021/11/26 09:36:34;;;;;;;61.30;22.08;;;;;;;3.75;89.02;96505.59;4993370;28;20129;-54
2021/11/26 09:38:59;;;;;;;61.20;22.00;;;;;;;3.66;88.84;96506.78;4993161;28;20033;-55
2021/11/26 09:41:26;;;;;;;57.25;20.65;;;;;;;3.74;90.92;96503.06;4991502;28;20046;-54
2021/11/26 09:43:52;;;;;;;58.70;22.83;;;;;;;3.52;88.39;96498.72;4991989;28;20137;-54
2021/11/26 09:46:23;;;;;;;61.50;22.92;;;;;;;3.65;88.83;96497.34;4990459;28;20522;-54
2021/11/26 09:48:49;;;;;;;61.72;22.58;;;;;;;3.92;88.31;96488.66;4992323;28;20022;-56
2021/11/26 09:51:14;;;;;;;63.13;22.80;;;;;;;3.92;88.08;96486.91;4989932;28;20124;-55
2021/11/26 09:53:40;;;;;;;56.58;22.58;;;;;;;3.89;88.32;96484.44;4990709;28;20032;-55
2021/11/26 09:56:08;;;;;;;57.65;21.77;;;;;;;3.92;88.17;96468.84;4992689;28;20417;-55
2021/11/26 09:58:35;;;;;;;51.67;20.20;;;;;;;4.11;88.27;96470.69;4991622;28;20076;-54
2021/11/26 10:01:06;;;;;;;52.03;20.35;;;;;;;4.04;88.87;96463.22;4991941;28;20061;-54
2021/11/26 10:03:38;;;;;;;53.20;21.67;;;;;;;3.91;90.16;96456.81;4989691;28;20032;-54
2021/11/26 10:06:03;;;;;;;55.75;20.77;;;;;;;3.80;89.43;96454.66;4990395;28;20038;-54
2021/11/26 10:08:29;;;;;;;51.50;19.48;;;;;;;4.17;89.66;96449.78;4993563;28;20022;-55
2021/11/26 10:11:00;;;;;;;53.38;18.88;;;;;;;4.38;93.28;96443.78;4990460;28;20050;-54
2021/11/26 10:13:29;;;;;;;47.88;18.95;;;;;;;3.81;91.63;96433.16;4989607;28;20057;-54
2021/11/26 10:15:55;;;;;;;47.22;19.38;;;;;;;3.77;89.29;96430.75;4994549;28;20034;-56
2021/11/26 10:18:23;;;;;;;49.67;20.17;;;;;;;3.81;88.67;96424.56;4991107;28;20026;-55
2021/11/26 10:21:09;;;;;;;51.75;20.08;;;;;;;3.96;88.15;96425.72;4990715;28;20076;-56
2021/11/26 10:23:44;;;;;;;52.97;19.30;;;;;;;3.45;89.38;96414.78;4989551;28;20034;-54
2021/11/26 10:26:26;;;;;;;48.78;18.63;;;;;;;3.62;89.50;96412.41;4989972;28;20030;-54
2021/11/26 10:28:59;;;;;;;47.47;18.23;;;;;;;3.63;93.57;96411.47;4992714;28;20036;-56
2021/11/26 10:31:28;;;;;;;50.63;19.58;;;;;;;3.75;89.82;96401.59;4990693;28;20041;-55
2021/11/26 10:33:56;;;;;;;45.08;18.17;;;;;;;4.01;89.40;96405.72;4990971;28;20121;-54
2021/11/26 10:36:22;;;;;;;51.33;19.50;;;;;;;3.86;89.49;96399.44;4989100;28;20116;-56
2021/11/26 10:38:49;;;;;;;51.65;18.10;;;;;;;3.98;90.74;96392.94;4990854;28;20944;-55
2021/11/26 10:41:22;;;;;;;52.92;18.42;;;;;;;3.97;94.99;96386.97;4989955;28;20420;-55
2021/11/26 10:59:48;;;;;;;50.97;18.48;;;;;;;4.13;90.94;96361.34;4990733;28;20137;-55
2021/11/26 11:02:45;;;;;;;55.55;19.60;;;;;;;4.13;86.57;96358.78;4990128;28;20667;-56
2021/11/26 11:05:22;;;;;;;53.75;18.63;;;;;;;4.38;87.09;96353.41;4983201;28;20509;-55
2021/11/26 11:07:47;;;;;;;48.40;18.70;;;;;;;4.10;86.05;96350.31;4989351;28;20032;-55
2021/11/26 11:10:23;;;;;;;50.50;18.83;;;;;;;4.02;89.98;96348.06;4989382;28;20124;-56
2021/11/26 11:12:49;;;;;;;57.33;21.73;;;;;;;4.03;88.48;96340.25;4988314;28;20538;-54
2021/11/26 11:15:14;;;;;;;50.45;19.20;;;;;;;4.14;86.99;96341.56;4987986;28;20121;-54
2021/11/26 11:17:40;;;;;;;53.45;19.55;;;;;;;3.64;89.01;96335.84;4988135;28;20026;-56
2021/11/26 11:20:15;;;;;;;52.47;19.63;;;;;;;4.25;86.20;96329.03;4988684;28;20112;-55
2021/11/26 11:22:41;;;;;;;57.40;18.45;;;;;;;4.20;89.88;96318.91;4990799;28;20077;-54
2021/11/26 11:25:09;;;;;;;58.15;19.85;;;;;;;4.06;87.13;96323.81;4994942;28;20038;-55
2021/11/26 11:27:35;;;;;;;52.60;19.20;;;;;;;4.63;83.49;96317.06;4997081;28;20049;-56
2021/11/26 11:30:04;;;;;;;58.25;20.20;;;;;;;4.56;87.51;96307.06;4997615;28;20057;-55
2021/11/26 11:32:30;;;;;;;50.45;18.80;;;;;;;4.41;83.92;96305.97;4995820;28;20053;-55
2021/11/26 11:34:57;;;;;;;51.55;19.65;;;;;;;4.70;83.42;96304.69;4995965;28;20493;-54
2021/11/26 11:37:28;;;;;;;53.42;18.65;;;;;;;4.39;86.70;96295.75;4998190;28;20072;-55